sensor_id;sensor_type;location;lat;lon;timestamp;temperature;humidity
1568;DHT22;777;47.156;8.326;2022-07-23T00:01:22;20.30;99.90
1568;DHT22;777;47.156;8.326;2022-07-23T00:03:50;20.30;99.90
1568;DHT22;777;47.156;8.326;2022-07-23T00:06:20;20.30;99.90
1568;DHT22;777;47.156;8.326;2022-07-23T00:08:48;20.30;99.90
1568;DHT22;777;47.156;8.326;2022-07-23T00:11:15;20.30;99.90
1568;DHT22;777;47.156;8.326;2022-07-23T00:13:42;20.30;99.90
1568;DHT22;777;47.156;8.326;2022-07-23T00:16:09;20.20;99.90
1568;DHT22;777;47.156;8.326;2022-07-23T00:18:36;20.10;99.90
1568;DHT22;777;47.156;8.326;2022-07-23T00:21:04;20.10;99.90
1568;DHT22;777;47.156;8.326;2022-07-23T00:23:31;20.10;99.90
1568;DHT22;777;47.156;8.326;2022-07-23T00:25:59;20.10;99.90
1568;DHT22;777;47.156;8.326;2022-07-23T00:28:26;20.10;99.90
1568;DHT22;777;47.156;8.326;2022-07-23T00:30:54;20.10;99.90
1568;DHT22;777;47.156;8.326;2022-07-23T00:33:21;20.00;99.90
1568;DHT22;777;47.156;8.326;2022-07-23T00:35:49;19.90;99.90
1568;DHT22;777;47.156;8.326;2022-07-23T00:38:16;19.90;99.90
1568;DHT22;777;47.156;8.326;2022-07-23T00:40:43;19.90;99.90
1568;DHT22;777;47.156;8.326;2022-07-23T00:43:11;20.00;99.90
1568;DHT22;777;47.156;8.326;2022-07-23T00:45:39;20.00;99.90
1568;DHT22;777;47.156;8.326;2022-07-23T00:48:06;20.00;99.90
1568;DHT22;777;47.156;8.326;2022-07-23T00:50:34;20.00;99.90
1568;DHT22;777;47.156;8.326;2022-07-23T00:53:01;20.00;99.90
1568;DHT22;777;47.156;8.326;2022-07-23T00:55:28;20.10;99.90
1568;DHT22;777;47.156;8.326;2022-07-23T00:57:56;20.20;99.90
1568;DHT22;777;47.156;8.326;2022-07-23T01:00:26;20.20;99.90
1568;DHT22;777;47.156;8.326;2022-07-23T01:02:53;20.10;99.90
1568;DHT22;777;47.156;8.326;2022-07-23T01:05:20;20.10;99.90
1568;DHT22;777;47.156;8.326;2022-07-23T01:07:49;20.00;99.90
1568;DHT22;777;47.156;8.326;2022-07-23T01:10:16;20.00;99.90
1568;DHT22;777;47.156;8.326;2022-07-23T01:13:00;20.00;99.90
1568;DHT22;777;47.156;8.326;2022-07-23T01:15:29;20.00;99.90
1568;DHT22;777;47.156;8.326;2022-07-23T01:17:57;19.90;99.90
1568;DHT22;777;47.156;8.326;2022-07-23T01:20:24;19.90;99.90
1568;DHT22;777;47.156;8.326;2022-07-23T01:22:54;19.90;99.90
1568;DHT22;777;47.156;8.326;2022-07-23T01:25:21;19.90;99.90
1568;DHT22;777;47.156;8.326;2022-07-23T01:27:58;19.90;99.90
1568;DHT22;777;47.156;8.326;2022-07-23T01:30:25;19.90;99.90
1568;DHT22;777;47.156;8.326;2022-07-23T01:32:53;19.90;99.90
1568;DHT22;777;47.156;8.326;2022-07-23T01:35:29;20.00;99.90
1568;DHT22;777;47.156;8.326;2022-07-23T01:38:02;20.10;99.90
1568;DHT22;777;47.156;8.326;2022-07-23T01:40:29;20.00;99.90
1568;DHT22;777;47.156;8.326;2022-07-23T01:42:57;20.00;99.90
1568;DHT22;777;47.156;8.326;2022-07-23T01:45:24;20.00;99.90
1568;DHT22;777;47.156;8.326;2022-07-23T01:47:52;20.00;99.90
1568;DHT22;777;47.156;8.326;2022-07-23T01:50:20;20.10;99.90
1568;DHT22;777;47.156;8.326;2022-07-23T01:53:21;20.20;99.90
1568;DHT22;777;47.156;8.326;2022-07-23T01:55:48;20.00;99.90
1568;DHT22;777;47.156;8.326;2022-07-23T01:58:15;20.00;99.90
1568;DHT22;777;47.156;8.326;2022-07-23T02:00:42;20.10;99.90
1568;DHT22;777;47.156;8.326;2022-07-23T02:05:30;20.30;99.90
1568;DHT22;777;47.156;8.326;2022-07-23T02:07:58;20.30;99.90
1568;DHT22;777;47.156;8.326;2022-07-23T02:10:26;20.30;99.90
1568;DHT22;777;47.156;8.326;2022-07-23T02:12:53;20.30;99.90
1568;DHT22;777;47.156;8.326;2022-07-23T02:15:20;20.40;99.90
1568;DHT22;777;47.156;8.326;2022-07-23T02:17:48;20.50;99.90
1568;DHT22;777;47.156;8.326;2022-07-23T02:20:15;20.40;99.90
1568;DHT22;777;47.156;8.326;2022-07-23T02:22:44;20.40;99.90
1568;DHT22;777;47.156;8.326;2022-07-23T02:25:12;20.30;99.90
1568;DHT22;777;47.156;8.326;2022-07-23T02:27:39;20.30;99.90
1568;DHT22;777;47.156;8.326;2022-07-23T02:30:07;20.30;99.90
1568;DHT22;777;47.156;8.326;2022-07-23T02:32:35;20.30;99.90
1568;DHT22;777;47.156;8.326;2022-07-23T02:35:02;20.30;99.90
1568;DHT22;777;47.156;8.326;2022-07-23T02:37:31;20.30;99.90
1568;DHT22;777;47.156;8.326;2022-07-23T02:39:59;20.40;99.90
1568;DHT22;777;47.156;8.326;2022-07-23T02:42:26;20.30;99.90
1568;DHT22;777;47.156;8.326;2022-07-23T02:44:54;20.20;99.90
1568;DHT22;777;47.156;8.326;2022-07-23T02:47:21;20.00;99.90
1568;DHT22;777;47.156;8.326;2022-07-23T02:49:48;19.80;99.90
1568;DHT22;777;47.156;8.326;2022-07-23T02:52:15;19.70;99.90
1568;DHT22;777;47.156;8.326;2022-07-23T02:54:42;19.70;99.90
1568;DHT22;777;47.156;8.326;2022-07-23T02:57:14;19.40;99.90
1568;DHT22;777;47.156;8.326;2022-07-23T02:59:42;19.10;99.90
1568;DHT22;777;47.156;8.326;2022-07-23T03:02:09;18.80;99.90
1568;DHT22;777;47.156;8.326;2022-07-23T03:04:37;18.70;99.90
1568;DHT22;777;47.156;8.326;2022-07-23T03:07:04;18.60;99.90
1568;DHT22;777;47.156;8.326;2022-07-23T03:09:31;18.50;99.90
1568;DHT22;777;47.156;8.326;2022-07-23T03:11:59;18.50;99.90
1568;DHT22;777;47.156;8.326;2022-07-23T03:14:27;18.50;99.90
1568;DHT22;777;47.156;8.326;2022-07-23T03:16:55;18.60;99.90
1568;DHT22;777;47.156;8.326;2022-07-23T03:19:22;18.60;99.90
1568;DHT22;777;47.156;8.326;2022-07-23T03:21:49;18.60;99.90
1568;DHT22;777;47.156;8.326;2022-07-23T03:24:16;18.60;99.90
1568;DHT22;777;47.156;8.326;2022-07-23T03:26:44;18.50;99.90
1568;DHT22;777;47.156;8.326;2022-07-23T03:29:12;18.50;99.90
1568;DHT22;777;47.156;8.326;2022-07-23T03:31:40;18.60;99.90
1568;DHT22;777;47.156;8.326;2022-07-23T03:34:07;18.70;99.90
1568;DHT22;777;47.156;8.326;2022-07-23T03:36:35;18.70;99.90
1568;DHT22;777;47.156;8.326;2022-07-23T03:39:02;18.70;99.90
1568;DHT22;777;47.156;8.326;2022-07-23T03:41:29;18.70;99.90
1568;DHT22;777;47.156;8.326;2022-07-23T03:43:56;18.70;99.90
1568;DHT22;777;47.156;8.326;2022-07-23T03:46:24;18.80;99.90
1568;DHT22;777;47.156;8.326;2022-07-23T03:48:52;18.70;99.90
1568;DHT22;777;47.156;8.326;2022-07-23T03:51:19;18.70;99.90
1568;DHT22;777;47.156;8.326;2022-07-23T03:53:46;18.70;99.90
1568;DHT22;777;47.156;8.326;2022-07-23T03:56:16;18.80;99.90
1568;DHT22;777;47.156;8.326;2022-07-23T03:58:43;18.60;99.90
1568;DHT22;777;47.156;8.326;2022-07-23T04:01:11;18.70;99.90
1568;DHT22;777;47.156;8.326;2022-07-23T04:03:38;18.80;99.90
1568;DHT22;777;47.156;8.326;2022-07-23T04:06:08;18.60;99.90
1568;DHT22;777;47.156;8.326;2022-07-23T04:08:36;18.60;99.90
1568;DHT22;777;47.156;8.326;2022-07-23T04:11:03;18.60;99.90
1568;DHT22;777;47.156;8.326;2022-07-23T04:13:30;18.70;99.90
1568;DHT22;777;47.156;8.326;2022-07-23T04:15:58;18.80;99.90
1568;DHT22;777;47.156;8.326;2022-07-23T04:18:25;18.90;99.90
1568;DHT22;777;47.156;8.326;2022-07-23T04:20:59;18.90;99.90
1568;DHT22;777;47.156;8.326;2022-07-23T04:23:27;18.90;99.90
1568;DHT22;777;47.156;8.326;2022-07-23T04:25:54;18.90;99.90
1568;DHT22;777;47.156;8.326;2022-07-23T04:28:21;19.00;99.90
1568;DHT22;777;47.156;8.326;2022-07-23T04:30:49;19.00;99.90
1568;DHT22;777;47.156;8.326;2022-07-23T04:33:17;19.10;99.90
1568;DHT22;777;47.156;8.326;2022-07-23T04:35:47;19.10;99.90
1568;DHT22;777;47.156;8.326;2022-07-23T04:38:18;19.00;99.90
1568;DHT22;777;47.156;8.326;2022-07-23T04:40:50;19.00;99.90
1568;DHT22;777;47.156;8.326;2022-07-23T04:43:17;19.10;99.90
1568;DHT22;777;47.156;8.326;2022-07-23T04:45:46;19.10;99.90
1568;DHT22;777;47.156;8.326;2022-07-23T04:48:14;19.10;99.90
1568;DHT22;777;47.156;8.326;2022-07-23T04:50:41;19.10;99.90
1568;DHT22;777;47.156;8.326;2022-07-23T04:53:21;19.10;99.90
1568;DHT22;777;47.156;8.326;2022-07-23T04:55:52;19.10;99.90
1568;DHT22;777;47.156;8.326;2022-07-23T04:58:19;19.10;99.90
1568;DHT22;777;47.156;8.326;2022-07-23T05:00:47;19.20;99.90
1568;DHT22;777;47.156;8.326;2022-07-23T05:03:14;19.30;99.90
1568;DHT22;777;47.156;8.326;2022-07-23T05:05:44;19.30;99.90
1568;DHT22;777;47.156;8.326;2022-07-23T05:08:13;19.30;99.90
1568;DHT22;777;47.156;8.326;2022-07-23T05:10:43;19.20;99.90
1568;DHT22;777;47.156;8.326;2022-07-23T05:13:11;19.30;99.90
1568;DHT22;777;47.156;8.326;2022-07-23T05:15:38;19.40;99.90
1568;DHT22;777;47.156;8.326;2022-07-23T05:18:06;19.40;99.90
1568;DHT22;777;47.156;8.326;2022-07-23T05:20:33;19.40;99.90
1568;DHT22;777;47.156;8.326;2022-07-23T05:23:00;19.40;99.90
1568;DHT22;777;47.156;8.326;2022-07-23T05:25:28;19.60;99.90
1568;DHT22;777;47.156;8.326;2022-07-23T05:27:55;19.50;99.90
1568;DHT22;777;47.156;8.326;2022-07-23T05:30:24;19.60;99.90
1568;DHT22;777;47.156;8.326;2022-07-23T05:32:57;19.60;99.90
1568;DHT22;777;47.156;8.326;2022-07-23T05:35:24;19.30;99.90
1568;DHT22;777;47.156;8.326;2022-07-23T05:38:10;19.20;99.90
1568;DHT22;777;47.156;8.326;2022-07-23T05:40:38;19.20;99.90
1568;DHT22;777;47.156;8.326;2022-07-23T05:43:05;19.30;99.90
1568;DHT22;777;47.156;8.326;2022-07-23T05:45:35;19.30;99.90
1568;DHT22;777;47.156;8.326;2022-07-23T05:48:02;19.30;99.90
1568;DHT22;777;47.156;8.326;2022-07-23T05:50:39;19.40;99.90
1568;DHT22;777;47.156;8.326;2022-07-23T05:53:14;19.40;99.90
1568;DHT22;777;47.156;8.326;2022-07-23T05:55:57;19.40;99.90
1568;DHT22;777;47.156;8.326;2022-07-23T05:58:24;19.30;99.90
1568;DHT22;777;47.156;8.326;2022-07-23T06:00:53;19.30;99.90
1568;DHT22;777;47.156;8.326;2022-07-23T06:03:20;19.40;99.90
1568;DHT22;777;47.156;8.326;2022-07-23T06:05:47;19.40;99.90
1568;DHT22;777;47.156;8.326;2022-07-23T06:08:14;19.50;99.90
1568;DHT22;777;47.156;8.326;2022-07-23T06:10:41;19.40;99.90
1568;DHT22;777;47.156;8.326;2022-07-23T06:13:09;19.30;99.90
1568;DHT22;777;47.156;8.326;2022-07-23T06:15:36;19.30;99.90
1568;DHT22;777;47.156;8.326;2022-07-23T06:18:05;19.30;99.90
1568;DHT22;777;47.156;8.326;2022-07-23T06:20:32;19.30;99.90
1568;DHT22;777;47.156;8.326;2022-07-23T06:22:59;19.20;99.90
1568;DHT22;777;47.156;8.326;2022-07-23T06:25:27;19.20;99.90
1568;DHT22;777;47.156;8.326;2022-07-23T06:27:55;19.20;99.90
1568;DHT22;777;47.156;8.326;2022-07-23T06:30:22;19.20;99.90
1568;DHT22;777;47.156;8.326;2022-07-23T06:32:49;19.30;99.90
1568;DHT22;777;47.156;8.326;2022-07-23T06:35:17;19.30;99.90
1568;DHT22;777;47.156;8.326;2022-07-23T06:37:46;19.30;99.90
1568;DHT22;777;47.156;8.326;2022-07-23T06:40:14;19.20;99.90
1568;DHT22;777;47.156;8.326;2022-07-23T06:42:41;19.10;99.90
1568;DHT22;777;47.156;8.326;2022-07-23T06:45:15;19.10;99.90
1568;DHT22;777;47.156;8.326;2022-07-23T06:47:42;19.00;99.90
1568;DHT22;777;47.156;8.326;2022-07-23T06:50:09;19.10;99.90
1568;DHT22;777;47.156;8.326;2022-07-23T06:52:38;19.10;99.90
1568;DHT22;777;47.156;8.326;2022-07-23T06:55:05;19.00;99.90
1568;DHT22;777;47.156;8.326;2022-07-23T06:57:33;19.10;99.90
1568;DHT22;777;47.156;8.326;2022-07-23T07:00:00;19.10;99.90
1568;DHT22;777;47.156;8.326;2022-07-23T07:02:27;19.10;99.90
1568;DHT22;777;47.156;8.326;2022-07-23T07:04:55;19.10;99.90
1568;DHT22;777;47.156;8.326;2022-07-23T07:07:22;19.10;99.90
1568;DHT22;777;47.156;8.326;2022-07-23T07:09:50;19.10;99.90
1568;DHT22;777;47.156;8.326;2022-07-23T07:12:17;19.10;99.90
1568;DHT22;777;47.156;8.326;2022-07-23T07:14:44;19.20;99.90
1568;DHT22;777;47.156;8.326;2022-07-23T07:17:12;19.20;99.90
1568;DHT22;777;47.156;8.326;2022-07-23T07:19:39;19.10;99.90
1568;DHT22;777;47.156;8.326;2022-07-23T07:22:06;19.10;99.90
1568;DHT22;777;47.156;8.326;2022-07-23T07:24:33;19.00;99.90
1568;DHT22;777;47.156;8.326;2022-07-23T07:27:02;19.00;99.90
1568;DHT22;777;47.156;8.326;2022-07-23T07:29:29;19.10;99.90
1568;DHT22;777;47.156;8.326;2022-07-23T07:31:56;19.20;99.90
1568;DHT22;777;47.156;8.326;2022-07-23T07:34:23;19.30;99.90
1568;DHT22;777;47.156;8.326;2022-07-23T07:36:50;19.30;99.90
1568;DHT22;777;47.156;8.326;2022-07-23T07:39:17;19.30;99.90
1568;DHT22;777;47.156;8.326;2022-07-23T07:41:44;19.40;99.90
1568;DHT22;777;47.156;8.326;2022-07-23T07:44:13;19.40;99.90
1568;DHT22;777;47.156;8.326;2022-07-23T07:46:40;19.40;99.90
1568;DHT22;777;47.156;8.326;2022-07-23T07:49:07;19.40;99.90
1568;DHT22;777;47.156;8.326;2022-07-23T07:51:34;19.30;99.90
1568;DHT22;777;47.156;8.326;2022-07-23T07:54:01;19.20;99.90
1568;DHT22;777;47.156;8.326;2022-07-23T07:56:29;19.20;99.90
1568;DHT22;777;47.156;8.326;2022-07-23T07:58:56;19.10;99.90
1568;DHT22;777;47.156;8.326;2022-07-23T08:01:25;19.00;99.90
1568;DHT22;777;47.156;8.326;2022-07-23T08:03:52;18.90;99.90
1568;DHT22;777;47.156;8.326;2022-07-23T08:06:19;18.90;99.90
1568;DHT22;777;47.156;8.326;2022-07-23T08:08:46;18.90;99.90
1568;DHT22;777;47.156;8.326;2022-07-23T08:11:14;18.90;99.90
1568;DHT22;777;47.156;8.326;2022-07-23T08:13:41;18.90;99.90
1568;DHT22;777;47.156;8.326;2022-07-23T08:16:10;19.00;99.90
1568;DHT22;777;47.156;8.326;2022-07-23T08:18:38;19.00;99.90
1568;DHT22;777;47.156;8.326;2022-07-23T08:21:05;19.00;99.90
1568;DHT22;777;47.156;8.326;2022-07-23T08:23:32;19.10;99.90
1568;DHT22;777;47.156;8.326;2022-07-23T08:26:00;19.20;99.90
1568;DHT22;777;47.156;8.326;2022-07-23T08:28:27;19.30;99.90
1568;DHT22;777;47.156;8.326;2022-07-23T08:30:54;19.40;99.90
1568;DHT22;777;47.156;8.326;2022-07-23T08:33:21;19.50;99.90
1568;DHT22;777;47.156;8.326;2022-07-23T08:35:51;19.70;99.90
1568;DHT22;777;47.156;8.326;2022-07-23T08:38:20;20.10;99.90
1568;DHT22;777;47.156;8.326;2022-07-23T08:40:49;20.40;99.90
1568;DHT22;777;47.156;8.326;2022-07-23T08:43:19;20.50;99.90
1568;DHT22;777;47.156;8.326;2022-07-23T08:45:48;20.70;99.90
1568;DHT22;777;47.156;8.326;2022-07-23T08:48:16;20.90;99.90
1568;DHT22;777;47.156;8.326;2022-07-23T08:50:45;21.30;99.90
1568;DHT22;777;47.156;8.326;2022-07-23T08:53:15;21.40;99.90
1568;DHT22;777;47.156;8.326;2022-07-23T08:55:43;21.90;99.90
1568;DHT22;777;47.156;8.326;2022-07-23T08:58:11;22.40;99.90
1568;DHT22;777;47.156;8.326;2022-07-23T09:00:38;23.10;99.90
1568;DHT22;777;47.156;8.326;2022-07-23T09:03:05;23.40;99.90
1568;DHT22;777;47.156;8.326;2022-07-23T09:05:32;23.30;99.90
1568;DHT22;777;47.156;8.326;2022-07-23T09:08:05;23.30;99.90
1568;DHT22;777;47.156;8.326;2022-07-23T09:10:50;23.20;99.90
1568;DHT22;777;47.156;8.326;2022-07-23T09:13:32;23.30;99.90
1568;DHT22;777;47.156;8.326;2022-07-23T09:16:02;23.40;99.90
1568;DHT22;777;47.156;8.326;2022-07-23T09:18:34;23.50;99.90
1568;DHT22;777;47.156;8.326;2022-07-23T09:21:17;24.00;99.90
1568;DHT22;777;47.156;8.326;2022-07-23T09:23:47;24.60;99.90
1568;DHT22;777;47.156;8.326;2022-07-23T09:26:34;25.40;99.90
1568;DHT22;777;47.156;8.326;2022-07-23T09:29:07;26.50;99.90
1568;DHT22;777;47.156;8.326;2022-07-23T09:31:43;27.30;99.90
1568;DHT22;777;47.156;8.326;2022-07-23T09:34:14;27.50;99.90
1568;DHT22;777;47.156;8.326;2022-07-23T09:36:41;27.40;99.90
1568;DHT22;777;47.156;8.326;2022-07-23T09:39:08;27.00;99.90
1568;DHT22;777;47.156;8.326;2022-07-23T09:41:39;26.50;99.90
1568;DHT22;777;47.156;8.326;2022-07-23T09:44:08;26.20;99.90
1568;DHT22;777;47.156;8.326;2022-07-23T09:46:36;26.60;99.90
1568;DHT22;777;47.156;8.326;2022-07-23T09:49:11;26.70;99.90
1568;DHT22;777;47.156;8.326;2022-07-23T09:51:47;26.60;99.90
1568;DHT22;777;47.156;8.326;2022-07-23T09:54:36;26.70;99.90
1568;DHT22;777;47.156;8.326;2022-07-23T09:57:09;27.10;99.90
1568;DHT22;777;47.156;8.326;2022-07-23T09:59:41;27.50;99.90
1568;DHT22;777;47.156;8.326;2022-07-23T10:02:10;28.10;99.90
1568;DHT22;777;47.156;8.326;2022-07-23T10:05:05;28.30;99.90
1568;DHT22;777;47.156;8.326;2022-07-23T10:07:52;28.50;99.90
1568;DHT22;777;47.156;8.326;2022-07-23T10:10:39;28.60;99.90
1568;DHT22;777;47.156;8.326;2022-07-23T10:13:30;28.80;99.90
1568;DHT22;777;47.156;8.326;2022-07-23T10:16:16;29.00;99.90
1568;DHT22;777;47.156;8.326;2022-07-23T10:18:45;29.40;99.90
1568;DHT22;777;47.156;8.326;2022-07-23T10:21:18;29.80;99.90
1568;DHT22;777;47.156;8.326;2022-07-23T10:24:01;29.50;99.90
1568;DHT22;777;47.156;8.326;2022-07-23T10:26:36;28.80;99.90
1568;DHT22;777;47.156;8.326;2022-07-23T10:29:18;28.50;99.90
1568;DHT22;777;47.156;8.326;2022-07-23T10:31:55;29.20;99.90
1568;DHT22;777;47.156;8.326;2022-07-23T10:34:30;29.70;99.90
1568;DHT22;777;47.156;8.326;2022-07-23T10:37:11;29.80;99.90
1568;DHT22;777;47.156;8.326;2022-07-23T10:39:40;30.40;99.90
1568;DHT22;777;47.156;8.326;2022-07-23T10:42:11;31.30;99.90
1568;DHT22;777;47.156;8.326;2022-07-23T10:44:41;31.50;99.90
1568;DHT22;777;47.156;8.326;2022-07-23T10:47:09;31.40;99.90
1568;DHT22;777;47.156;8.326;2022-07-23T10:49:46;31.50;99.90
1568;DHT22;777;47.156;8.326;2022-07-23T10:52:24;31.90;99.90
1568;DHT22;777;47.156;8.326;2022-07-23T10:54:54;32.20;99.90
1568;DHT22;777;47.156;8.326;2022-07-23T10:57:22;32.60;99.90
1568;DHT22;777;47.156;8.326;2022-07-23T11:02:59;33.30;99.90
1568;DHT22;777;47.156;8.326;2022-07-23T11:05:40;33.10;99.90
1568;DHT22;777;47.156;8.326;2022-07-23T11:08:14;33.00;99.90
1568;DHT22;777;47.156;8.326;2022-07-23T11:10:44;32.50;99.90
1568;DHT22;777;47.156;8.326;2022-07-23T11:13:41;32.50;99.90
1568;DHT22;777;47.156;8.326;2022-07-23T11:16:17;32.40;99.90
1568;DHT22;777;47.156;8.326;2022-07-23T11:19:00;30.10;99.90
1568;DHT22;777;47.156;8.326;2022-07-23T11:21:46;29.70;99.90
1568;DHT22;777;47.156;8.326;2022-07-23T11:24:16;30.30;99.90
1568;DHT22;777;47.156;8.326;2022-07-23T11:29:48;31.00;99.90
1568;DHT22;777;47.156;8.326;2022-07-23T11:32:29;32.30;99.90
1568;DHT22;777;47.156;8.326;2022-07-23T11:34:58;33.20;99.90
1568;DHT22;777;47.156;8.326;2022-07-23T11:37:31;33.50;99.90
1568;DHT22;777;47.156;8.326;2022-07-23T11:39:59;33.50;99.90
1568;DHT22;777;47.156;8.326;2022-07-23T11:42:26;33.00;99.90
1568;DHT22;777;47.156;8.326;2022-07-23T11:44:53;33.10;99.90
1568;DHT22;777;47.156;8.326;2022-07-23T11:47:22;32.90;99.90
1568;DHT22;777;47.156;8.326;2022-07-23T11:49:54;33.40;99.90
1568;DHT22;777;47.156;8.326;2022-07-23T11:52:23;33.60;99.90
1568;DHT22;777;47.156;8.326;2022-07-23T11:54:52;34.30;99.90
1568;DHT22;777;47.156;8.326;2022-07-23T11:57:24;34.40;99.90
1568;DHT22;777;47.156;8.326;2022-07-23T11:59:53;34.80;99.90
1568;DHT22;777;47.156;8.326;2022-07-23T12:02:21;34.90;99.90
1568;DHT22;777;47.156;8.326;2022-07-23T12:04:50;35.00;99.90
1568;DHT22;777;47.156;8.326;2022-07-23T12:07:30;35.40;99.90
1568;DHT22;777;47.156;8.326;2022-07-23T12:10:00;36.30;99.90
1568;DHT22;777;47.156;8.326;2022-07-23T12:12:35;36.70;99.90
1568;DHT22;777;47.156;8.326;2022-07-23T12:15:04;37.20;99.90
1568;DHT22;777;47.156;8.326;2022-07-23T12:17:33;37.40;99.90
1568;DHT22;777;47.156;8.326;2022-07-23T12:20:02;33.90;99.90
1568;DHT22;777;47.156;8.326;2022-07-23T12:22:36;34.30;99.90
1568;DHT22;777;47.156;8.326;2022-07-23T12:25:06;35.30;99.90
1568;DHT22;777;47.156;8.326;2022-07-23T12:27:34;35.60;99.90
1568;DHT22;777;47.156;8.326;2022-07-23T12:30:19;37.50;99.90
1568;DHT22;777;47.156;8.326;2022-07-23T12:32:48;39.60;98.70
1568;DHT22;777;47.156;8.326;2022-07-23T12:35:15;40.70;95.30
1568;DHT22;777;47.156;8.326;2022-07-23T12:37:47;41.50;93.40
1568;DHT22;777;47.156;8.326;2022-07-23T12:40:26;39.90;91.80
1568;DHT22;777;47.156;8.326;2022-07-23T12:42:56;39.50;94.10
1568;DHT22;777;47.156;8.326;2022-07-23T12:45:23;40.80;93.00
1568;DHT22;777;47.156;8.326;2022-07-23T12:48:00;42.80;90.40
1568;DHT22;777;47.156;8.326;2022-07-23T12:50:41;44.30;85.10
1568;DHT22;777;47.156;8.326;2022-07-23T12:53:12;42.20;82.50
1568;DHT22;777;47.156;8.326;2022-07-23T12:55:40;43.00;80.00
1568;DHT22;777;47.156;8.326;2022-07-23T12:58:11;43.10;76.70
1568;DHT22;777;47.156;8.326;2022-07-23T13:01:05;41.30;80.50
1568;DHT22;777;47.156;8.326;2022-07-23T13:03:35;41.40;78.80
1568;DHT22;777;47.156;8.326;2022-07-23T13:06:04;41.60;79.50
1568;DHT22;777;47.156;8.326;2022-07-23T13:08:34;42.10;78.20
1568;DHT22;777;47.156;8.326;2022-07-23T13:11:02;43.50;76.80
1568;DHT22;777;47.156;8.326;2022-07-23T13:13:31;43.90;74.10
1568;DHT22;777;47.156;8.326;2022-07-23T13:15:59;40.20;79.50
1568;DHT22;777;47.156;8.326;2022-07-23T13:18:27;40.70;80.40
1568;DHT22;777;47.156;8.326;2022-07-23T13:20:55;42.70;78.00
1568;DHT22;777;47.156;8.326;2022-07-23T13:23:22;44.00;75.80
1568;DHT22;777;47.156;8.326;2022-07-23T13:25:52;43.70;73.80
1568;DHT22;777;47.156;8.326;2022-07-23T13:28:21;40.30;79.40
1568;DHT22;777;47.156;8.326;2022-07-23T13:30:50;41.40;78.10
1568;DHT22;777;47.156;8.326;2022-07-23T13:33:17;43.30;75.00
1568;DHT22;777;47.156;8.326;2022-07-23T13:35:45;42.70;75.60
1568;DHT22;777;47.156;8.326;2022-07-23T13:38:12;43.90;73.80
1568;DHT22;777;47.156;8.326;2022-07-23T13:40:41;45.30;71.10
1568;DHT22;777;47.156;8.326;2022-07-23T13:43:11;46.80;68.20
1568;DHT22;777;47.156;8.326;2022-07-23T13:45:39;42.60;69.80
1568;DHT22;777;47.156;8.326;2022-07-23T13:48:08;41.00;71.80
1568;DHT22;777;47.156;8.326;2022-07-23T13:50:36;40.00;73.10
1568;DHT22;777;47.156;8.326;2022-07-23T13:53:04;39.20;75.40
1568;DHT22;777;47.156;8.326;2022-07-23T13:55:32;39.10;77.20
1568;DHT22;777;47.156;8.326;2022-07-23T13:58:00;38.60;78.60
1568;DHT22;777;47.156;8.326;2022-07-23T14:00:29;37.90;82.50
1568;DHT22;777;47.156;8.326;2022-07-23T14:02:57;40.30;77.50
1568;DHT22;777;47.156;8.326;2022-07-23T14:05:25;38.90;79.40
1568;DHT22;777;47.156;8.326;2022-07-23T14:07:52;36.20;82.10
1568;DHT22;777;47.156;8.326;2022-07-23T14:10:21;35.00;86.20
1568;DHT22;777;47.156;8.326;2022-07-23T14:12:49;34.40;86.90
1568;DHT22;777;47.156;8.326;2022-07-23T14:15:19;33.80;87.70
1568;DHT22;777;47.156;8.326;2022-07-23T14:17:48;34.20;88.70
1568;DHT22;777;47.156;8.326;2022-07-23T14:20:16;34.30;88.10
1568;DHT22;777;47.156;8.326;2022-07-23T14:22:43;33.40;89.60
1568;DHT22;777;47.156;8.326;2022-07-23T14:25:11;33.70;90.20
1568;DHT22;777;47.156;8.326;2022-07-23T14:27:38;34.20;89.60
1568;DHT22;777;47.156;8.326;2022-07-23T14:30:08;33.60;89.40
1568;DHT22;777;47.156;8.326;2022-07-23T14:32:36;33.30;91.40
1568;DHT22;777;47.156;8.326;2022-07-23T14:35:06;35.40;90.70
1568;DHT22;777;47.156;8.326;2022-07-23T14:37:33;37.50;87.90
1568;DHT22;777;47.156;8.326;2022-07-23T14:40:00;39.60;82.30
1568;DHT22;777;47.156;8.326;2022-07-23T14:42:28;40.20;80.10
1568;DHT22;777;47.156;8.326;2022-07-23T14:44:55;40.60;78.60
1568;DHT22;777;47.156;8.326;2022-07-23T14:47:23;40.70;77.00
1568;DHT22;777;47.156;8.326;2022-07-23T14:49:50;41.30;77.40
1568;DHT22;777;47.156;8.326;2022-07-23T14:52:19;41.60;75.40
1568;DHT22;777;47.156;8.326;2022-07-23T14:54:46;40.60;75.80
1568;DHT22;777;47.156;8.326;2022-07-23T14:57:14;38.60;78.70
1568;DHT22;777;47.156;8.326;2022-07-23T14:59:41;37.40;82.10
1568;DHT22;777;47.156;8.326;2022-07-23T15:02:09;37.70;83.20
1568;DHT22;777;47.156;8.326;2022-07-23T15:04:36;39.10;79.50
1568;DHT22;777;47.156;8.326;2022-07-23T15:07:03;40.60;77.60
1568;DHT22;777;47.156;8.326;2022-07-23T15:09:31;41.90;75.50
1568;DHT22;777;47.156;8.326;2022-07-23T15:11:59;42.20;73.80
1568;DHT22;777;47.156;8.326;2022-07-23T15:14:26;42.30;72.20
1568;DHT22;777;47.156;8.326;2022-07-23T15:16:53;42.00;71.60
1568;DHT22;777;47.156;8.326;2022-07-23T15:19:20;40.70;74.50
1568;DHT22;777;47.156;8.326;2022-07-23T15:21:47;40.90;75.80
1568;DHT22;777;47.156;8.326;2022-07-23T15:24:14;40.20;76.20
1568;DHT22;777;47.156;8.326;2022-07-23T15:26:43;39.70;77.20
1568;DHT22;777;47.156;8.326;2022-07-23T15:29:10;37.60;79.60
1568;DHT22;777;47.156;8.326;2022-07-23T15:31:37;36.30;81.90
1568;DHT22;777;47.156;8.326;2022-07-23T15:34:04;34.60;85.50
1568;DHT22;777;47.156;8.326;2022-07-23T15:36:32;32.60;90.10
1568;DHT22;777;47.156;8.326;2022-07-23T15:38:59;31.70;91.60
1568;DHT22;777;47.156;8.326;2022-07-23T15:41:26;31.30;92.90
1568;DHT22;777;47.156;8.326;2022-07-23T15:43:54;31.80;92.40
1568;DHT22;777;47.156;8.326;2022-07-23T15:46:22;33.80;90.30
1568;DHT22;777;47.156;8.326;2022-07-23T15:48:50;33.30;90.50
1568;DHT22;777;47.156;8.326;2022-07-23T15:51:17;32.30;91.80
1568;DHT22;777;47.156;8.326;2022-07-23T15:53:44;31.50;93.10
1568;DHT22;777;47.156;8.326;2022-07-23T15:56:12;30.20;94.60
1568;DHT22;777;47.156;8.326;2022-07-23T15:58:39;29.50;96.00
1568;DHT22;777;47.156;8.326;2022-07-23T16:01:08;29.20;96.90
1568;DHT22;777;47.156;8.326;2022-07-23T16:03:35;28.90;98.30
1568;DHT22;777;47.156;8.326;2022-07-23T16:06:03;28.70;98.90
1568;DHT22;777;47.156;8.326;2022-07-23T16:08:31;28.70;99.10
1568;DHT22;777;47.156;8.326;2022-07-23T16:10:59;28.60;99.90
1568;DHT22;777;47.156;8.326;2022-07-23T16:13:26;28.10;99.90
1568;DHT22;777;47.156;8.326;2022-07-23T16:15:53;28.00;99.90
1568;DHT22;777;47.156;8.326;2022-07-23T16:18:22;28.20;99.90
1568;DHT22;777;47.156;8.326;2022-07-23T16:20:51;28.40;99.90
1568;DHT22;777;47.156;8.326;2022-07-23T16:23:19;28.70;99.90
1568;DHT22;777;47.156;8.326;2022-07-23T16:25:46;29.10;99.90
1568;DHT22;777;47.156;8.326;2022-07-23T16:28:13;29.90;99.90
1568;DHT22;777;47.156;8.326;2022-07-23T16:30:40;30.80;99.90
1568;DHT22;777;47.156;8.326;2022-07-23T16:33:08;31.40;99.90
1568;DHT22;777;47.156;8.326;2022-07-23T16:35:36;32.00;99.90
1568;DHT22;777;47.156;8.326;2022-07-23T16:38:04;31.60;99.90
1568;DHT22;777;47.156;8.326;2022-07-23T16:40:32;31.40;99.90